createdAt,value
2022-11-23T00:01:15.841Z,4.10
2022-11-23T00:03:43.500Z,7.33
2022-11-23T00:06:10.293Z,3.90
2022-11-23T00:08:37.271Z,4.03
2022-11-23T00:11:04.606Z,5.27
2022-11-23T00:13:31.519Z,5.27
2022-11-23T00:15:58.282Z,5.00
2022-11-23T00:18:24.991Z,4.80
2022-11-23T00:20:51.751Z,4.80
2022-11-23T00:23:18.441Z,3.63
2022-11-23T00:25:46.801Z,4.63
2022-11-23T00:28:13.635Z,3.53
2022-11-23T00:30:40.405Z,6.00
2022-11-23T00:33:07.280Z,5.30
2022-11-23T00:35:34.156Z,3.50
2022-11-23T00:38:00.914Z,4.20
2022-11-23T00:40:27.666Z,5.90
2022-11-23T00:42:54.340Z,6.70
2022-11-23T00:45:21.054Z,5.93
2022-11-23T00:47:47.765Z,4.50
2022-11-23T00:50:14.567Z,4.50
2022-11-23T00:52:41.267Z,4.57
2022-11-23T00:55:08.406Z,4.57
2022-11-23T00:57:35.374Z,5.10
2022-11-23T01:00:02.805Z,4.03
2022-11-23T01:02:31.110Z,5.70
2022-11-23T01:04:57.802Z,7.03
2022-11-23T01:07:24.655Z,4.07
2022-11-23T01:09:51.499Z,6.27
2022-11-23T01:12:18.234Z,7.50
2022-11-23T01:14:44.978Z,5.53
2022-11-23T01:17:11.737Z,3.33
2022-11-23T01:19:38.442Z,4.30
2022-11-23T01:22:05.204Z,6.23
2022-11-23T01:24:32.149Z,5.40
2022-11-23T01:26:58.823Z,6.27
2022-11-23T01:29:25.957Z,3.93
2022-11-23T01:31:52.730Z,5.50
2022-11-23T01:34:19.528Z,6.50
2022-11-23T01:36:46.430Z,3.97
2022-11-23T01:39:14.308Z,6.00
2022-11-23T01:41:42.990Z,6.43
2022-11-23T01:44:32.016Z,4.83
2022-11-23T01:47:01.863Z,4.80
2022-11-23T01:49:35.510Z,6.00
2022-11-23T01:52:25.785Z,5.77
2022-11-23T01:54:55.819Z,6.43
2022-11-23T01:57:28.576Z,5.37
2022-11-23T01:59:56.344Z,3.63
2022-11-23T02:02:23.732Z,5.70
2022-11-23T02:04:53.611Z,4.90
2022-11-23T02:07:21.828Z,4.67
2022-11-23T02:09:49.107Z,5.90
2022-11-23T02:12:16.319Z,4.10
2022-11-23T02:14:43.572Z,5.13
2022-11-23T02:17:10.708Z,9.50
2022-11-23T02:19:55.397Z,5.30
2022-11-23T02:23:12.109Z,7.83
2022-11-23T02:25:47.370Z,4.97
2022-11-23T02:28:43.356Z,3.17
2022-11-23T02:31:10.191Z,3.27
2022-11-23T02:33:40.624Z,5.93
2022-11-23T02:36:26.187Z,5.60
2022-11-23T02:38:54.619Z,6.43
2022-11-23T02:41:21.376Z,3.93
2022-11-23T02:43:51.867Z,6.43
2022-11-23T02:46:18.618Z,6.60
2022-11-23T02:48:45.336Z,7.20
2022-11-23T02:51:12.050Z,4.53
2022-11-23T02:53:38.800Z,6.80
2022-11-23T02:56:05.860Z,5.10
2022-11-23T02:58:32.882Z,5.10
2022-11-23T03:00:59.673Z,4.20
2022-11-23T03:03:26.493Z,4.73
2022-11-23T03:05:53.217Z,5.77
2022-11-23T03:08:19.979Z,6.83
2022-11-23T03:10:46.711Z,5.33
2022-11-23T03:13:13.758Z,3.87
2022-11-23T03:15:40.812Z,5.93
2022-11-23T03:18:07.807Z,4.90
2022-11-23T03:20:34.607Z,3.77
2022-11-23T03:23:01.325Z,5.40
2022-11-23T03:25:28.161Z,6.13
2022-11-23T03:27:54.900Z,4.70
2022-11-23T03:30:21.686Z,8.30
2022-11-23T03:32:48.364Z,4.33
2022-11-23T03:35:15.195Z,4.10
2022-11-23T03:37:42.182Z,4.97
2022-11-23T03:40:09.862Z,4.30
2022-11-23T03:42:36.667Z,4.57
2022-11-23T03:45:03.685Z,4.53
2022-11-23T03:47:30.564Z,6.83
2022-11-23T03:49:57.287Z,5.90
2022-11-23T03:52:23.942Z,5.37
2022-11-23T03:54:50.786Z,5.77
2022-11-23T03:57:17.495Z,4.07
2022-11-23T03:59:44.228Z,4.30
2022-11-23T04:02:11.041Z,5.27
2022-11-23T04:04:37.794Z,5.87
2022-11-23T04:07:04.684Z,5.30
2022-11-23T04:09:31.821Z,3.83
2022-11-23T04:11:58.768Z,4.10
2022-11-23T04:14:25.560Z,4.10
2022-11-23T04:16:52.508Z,5.27
2022-11-23T04:19:19.214Z,4.80
2022-11-23T04:21:46.064Z,4.80
2022-11-23T04:24:12.901Z,4.57
2022-11-23T04:26:40.576Z,6.17
2022-11-23T04:29:07.368Z,4.10
2022-11-23T04:31:34.287Z,5.70
2022-11-23T04:34:00.999Z,9.07
2022-11-23T04:36:28.124Z,5.80
2022-11-23T04:38:54.935Z,5.07
2022-11-23T04:41:22.343Z,7.27
2022-11-23T04:43:49.495Z,6.60
2022-11-23T04:46:16.300Z,4.50
2022-11-23T04:48:46.332Z,4.30
2022-11-23T04:51:13.750Z,4.57
2022-11-23T04:53:40.940Z,4.90
2022-11-23T04:56:08.125Z,6.37
2022-11-23T04:58:36.843Z,6.30
2022-11-23T05:01:04.911Z,5.00
2022-11-23T05:03:34.970Z,6.00
2022-11-23T05:06:03.033Z,5.50
2022-11-23T05:08:30.624Z,4.90
2022-11-23T05:10:57.870Z,4.10
2022-11-23T05:13:24.734Z,5.63
2022-11-23T05:15:51.501Z,6.37
2022-11-23T05:18:18.397Z,5.70
2022-11-23T05:20:46.035Z,4.57
2022-11-23T05:23:13.072Z,4.63
2022-11-23T05:25:40.052Z,4.77
2022-11-23T05:28:30.100Z,5.43
2022-11-23T05:30:54.621Z,6.53
2022-11-23T05:33:21.309Z,5.07
2022-11-23T05:35:48.107Z,6.10
2022-11-23T05:38:14.824Z,6.30
2022-11-23T05:40:41.549Z,6.30
2022-11-23T05:43:08.639Z,6.93
2022-11-23T05:45:35.390Z,5.10
2022-11-23T05:48:02.172Z,8.57
2022-11-23T05:50:29.301Z,7.43
2022-11-23T05:52:57.673Z,7.03
2022-11-23T05:55:25.294Z,7.70
2022-11-23T05:57:52.245Z,8.70
2022-11-23T06:00:19.856Z,8.10
2022-11-23T06:02:46.594Z,5.60
2022-11-23T06:05:13.329Z,6.70
2022-11-23T06:07:40.087Z,6.30
2022-11-23T06:10:07.425Z,5.57
2022-11-23T06:12:34.236Z,8.40
2022-11-23T06:15:01.125Z,6.53
2022-11-23T06:17:27.970Z,7.40
2022-11-23T06:19:54.684Z,9.50
2022-11-23T06:22:21.330Z,6.70
2022-11-23T06:24:48.030Z,8.57
2022-11-23T06:27:18.333Z,7.73
2022-11-23T06:29:46.953Z,6.43
2022-11-23T06:32:14.408Z,8.60
2022-11-23T06:34:41.111Z,12.67
2022-11-23T06:37:07.797Z,9.40
2022-11-23T06:39:34.769Z,12.27
2022-11-23T06:42:23.349Z,11.70
2022-11-23T06:44:48.342Z,16.50
2022-11-23T06:47:17.271Z,14.80
2022-11-23T06:49:45.793Z,19.50
2022-11-23T06:52:13.818Z,14.90
2022-11-23T06:54:40.659Z,12.40
2022-11-23T06:57:10.773Z,15.00
2022-11-23T06:59:41.850Z,10.17
2022-11-23T07:02:11.881Z,9.43
2022-11-23T07:04:38.757Z,10.77
2022-11-23T07:07:07.325Z,8.27
2022-11-23T07:09:34.649Z,5.50
2022-11-23T07:12:01.703Z,6.63
2022-11-23T07:14:28.449Z,5.70
2022-11-23T07:16:56.018Z,7.57
2022-11-23T07:19:22.833Z,9.40
2022-11-23T07:21:49.492Z,8.10
2022-11-23T07:24:16.241Z,7.97
2022-11-23T07:26:42.899Z,7.23
2022-11-23T07:29:10.457Z,6.87
2022-11-23T07:31:37.165Z,9.10
2022-11-23T07:34:05.046Z,6.80
2022-11-23T07:36:31.887Z,8.40
2022-11-23T07:38:58.599Z,9.13
2022-11-23T07:41:27.399Z,7.70
2022-11-23T07:43:54.571Z,7.73
2022-11-23T07:46:21.910Z,6.60
2022-11-23T07:48:48.710Z,5.03
2022-11-23T07:51:16.460Z,5.47
2022-11-23T07:53:43.200Z,7.60
2022-11-23T07:56:09.986Z,6.63
2022-11-23T07:58:36.764Z,9.23
2022-11-23T08:01:03.619Z,5.53
2022-11-23T08:03:30.791Z,7.13
2022-11-23T08:05:57.704Z,7.20
2022-11-23T08:08:24.468Z,6.00
2022-11-23T08:10:53.832Z,7.23
2022-11-23T08:13:21.492Z,5.67
2022-11-23T08:15:53.846Z,9.57
2022-11-23T08:18:22.361Z,7.23
2022-11-23T08:20:49.033Z,12.00
2022-11-23T08:23:15.681Z,6.07
2022-11-23T08:25:42.469Z,6.90
2022-11-23T08:28:09.738Z,7.30
2022-11-23T08:30:36.806Z,6.10
2022-11-23T08:33:08.497Z,4.80
2022-11-23T08:35:39.811Z,5.20
2022-11-23T08:38:08.783Z,6.60
2022-11-23T08:40:36.847Z,5.20
2022-11-23T08:43:04.092Z,5.67
2022-11-23T08:45:31.066Z,6.10
2022-11-23T08:48:04.712Z,3.97
2022-11-23T08:50:34.379Z,5.47
2022-11-23T08:53:01.200Z,4.70
2022-11-23T08:55:28.763Z,6.47
2022-11-23T08:57:57.073Z,6.00
2022-11-23T09:00:24.969Z,7.13
2022-11-23T09:02:51.768Z,4.80
2022-11-23T09:05:18.565Z,7.83
2022-11-23T09:07:45.415Z,5.17
2022-11-23T09:10:17.784Z,7.70
2022-11-23T09:12:45.530Z,4.90
2022-11-23T09:15:12.248Z,6.17
2022-11-23T09:17:38.977Z,5.17
2022-11-23T09:20:06.559Z,5.63
2022-11-23T09:22:33.310Z,4.90
2022-11-23T09:25:00.145Z,5.60
2022-11-23T09:27:26.960Z,6.00
2022-11-23T09:29:53.629Z,5.17
2022-11-23T09:32:20.469Z,5.00
2022-11-23T09:34:47.360Z,4.60
2022-11-23T09:37:14.611Z,6.00
2022-11-23T09:39:41.482Z,5.80
2022-11-23T09:42:38.628Z,7.43
2022-11-23T09:45:41.733Z,5.63
2022-11-23T09:48:29.989Z,4.67
2022-11-23T09:51:02.616Z,8.43
2022-11-23T09:53:56.460Z,5.37
2022-11-23T09:56:30.014Z,9.63
2022-11-23T09:58:59.399Z,5.83
2022-11-23T10:01:30.847Z,4.70
2022-11-23T10:03:58.203Z,5.50
2022-11-23T10:06:27.760Z,5.40
2022-11-23T10:09:31.946Z,5.17
2022-11-23T10:12:06.395Z,6.43
2022-11-23T10:14:45.313Z,5.30
2022-11-23T10:17:18.413Z,5.63
2022-11-23T10:20:12.303Z,5.10
2022-11-23T10:22:49.514Z,4.53
2022-11-23T10:25:18.836Z,5.83
2022-11-23T10:27:49.401Z,4.33
2022-11-23T10:30:17.981Z,5.00
2022-11-23T10:32:48.973Z,3.80
2022-11-23T10:35:17.407Z,5.60
2022-11-23T10:37:44.357Z,8.13
2022-11-23T10:40:17.001Z,6.10
2022-11-23T10:42:50.025Z,6.53
2022-11-23T10:45:23.671Z,5.73
2022-11-23T10:47:55.881Z,6.33
2022-11-23T10:50:30.218Z,5.00
2022-11-23T10:53:12.678Z,7.87
2022-11-23T10:55:55.087Z,5.93
2022-11-23T10:58:37.001Z,4.13
2022-11-23T11:01:16.341Z,6.73
2022-11-23T11:03:43.086Z,5.03
2022-11-23T11:06:11.251Z,4.23
2022-11-23T11:08:51.570Z,3.93
2022-11-23T11:11:28.832Z,5.37
2022-11-23T11:14:03.288Z,4.37
2022-11-23T11:16:36.393Z,4.63
2022-11-23T11:19:21.261Z,4.97
2022-11-23T11:21:48.159Z,5.40
2022-11-23T11:24:31.403Z,5.47
2022-11-23T11:27:01.425Z,6.80
2022-11-23T11:29:48.485Z,3.50
2022-11-23T11:32:33.140Z,4.60
2022-11-23T11:35:28.922Z,3.77
2022-11-23T11:38:08.197Z,3.60
2022-11-23T11:40:53.349Z,3.77
2022-11-23T11:43:39.799Z,3.23
2022-11-23T11:46:29.071Z,3.63
2022-11-23T11:49:05.875Z,4.47
2022-11-23T11:51:38.311Z,3.80
2022-11-23T11:54:37.292Z,4.40
2022-11-23T11:57:12.234Z,6.20
2022-11-23T11:59:43.772Z,4.97
2022-11-23T12:02:42.975Z,4.17
2022-11-23T12:05:18.704Z,4.27
2022-11-23T12:08:07.159Z,4.00
2022-11-23T12:10:38.640Z,4.27
2022-11-23T12:13:05.376Z,5.13
2022-11-23T12:15:50.958Z,2.67
2022-11-23T12:18:26.602Z,3.03
2022-11-23T12:21:11.840Z,3.17
2022-11-23T12:23:49.156Z,3.93
2022-11-23T12:26:28.538Z,3.50
2022-11-23T12:29:17.008Z,3.20
2022-11-23T12:31:54.018Z,5.30
2022-11-23T12:34:34.379Z,2.30
2022-11-23T12:37:41.891Z,2.73
2022-11-23T12:40:36.373Z,3.30
2022-11-23T12:43:35.251Z,4.03
2022-11-23T12:46:12.233Z,2.90
2022-11-23T12:49:07.255Z,4.57
2022-11-23T12:51:53.043Z,4.23
2022-11-23T12:55:03.413Z,3.80
2022-11-23T12:57:38.578Z,3.73
2022-11-23T13:00:13.038Z,2.60
2022-11-23T13:03:00.807Z,5.30
2022-11-23T13:06:00.264Z,2.17
2022-11-23T13:08:36.254Z,2.10
2022-11-23T13:11:14.970Z,3.80
2022-11-23T13:14:02.968Z,4.70
2022-11-23T13:16:59.686Z,3.50
2022-11-23T13:20:00.638Z,2.73
2022-11-23T13:22:30.037Z,4.30
2022-11-23T13:25:20.966Z,2.10
2022-11-23T13:27:50.740Z,2.77
2022-11-23T13:33:21.033Z,3.70
2022-11-23T13:36:03.789Z,4.03
2022-11-23T13:38:42.431Z,3.30
2022-11-23T13:41:33.935Z,2.43
2022-11-23T13:44:19.637Z,5.00
2022-11-23T13:47:00.459Z,2.80
2022-11-23T13:49:31.495Z,3.47
2022-11-23T13:52:20.799Z,3.40
2022-11-23T13:55:13.581Z,2.37
2022-11-23T13:57:42.651Z,2.80
2022-11-23T14:00:47.232Z,2.30
2022-11-23T14:03:52.042Z,3.03
2022-11-23T14:06:34.044Z,2.80
2022-11-23T14:09:21.318Z,3.67
2022-11-23T14:12:09.839Z,3.40
2022-11-23T14:15:03.276Z,3.50
2022-11-23T14:18:00.872Z,2.60
2022-11-23T14:20:49.407Z,3.17
2022-11-23T14:23:28.358Z,3.77
2022-11-23T14:26:19.220Z,4.07
2022-11-23T14:29:10.457Z,4.20
2022-11-23T14:31:46.953Z,3.37
2022-11-23T14:34:35.722Z,3.93
2022-11-23T14:37:23.888Z,3.90
2022-11-23T14:40:05.447Z,4.40
2022-11-23T14:42:35.308Z,2.57
2022-11-23T14:45:04.852Z,4.67
2022-11-23T14:47:32.572Z,2.47
2022-11-23T14:49:59.370Z,7.30
2022-11-23T14:52:33.647Z,3.93
2022-11-23T14:55:04.046Z,6.63
2022-11-23T14:57:41.314Z,5.07
2022-11-23T15:00:37.020Z,5.47
2022-11-23T15:03:34.528Z,5.70
2022-11-23T15:06:18.530Z,4.30
2022-11-23T15:09:10.880Z,9.17
2022-11-23T15:11:38.556Z,3.70
2022-11-23T15:14:25.263Z,4.47
2022-11-23T15:16:52.150Z,3.93
2022-11-23T15:19:27.129Z,3.30
2022-11-23T15:21:54.236Z,4.40
2022-11-23T15:24:23.342Z,4.23
2022-11-23T15:26:50.529Z,5.63
2022-11-23T15:29:30.747Z,4.77
2022-11-23T15:32:22.285Z,3.20
2022-11-23T15:34:44.683Z,3.03
2022-11-23T15:37:11.847Z,6.70
2022-11-23T15:39:39.304Z,5.80
2022-11-23T15:42:07.145Z,4.70
2022-11-23T15:44:35.924Z,4.27
2022-11-23T15:47:08.896Z,5.50
2022-11-23T15:49:40.327Z,6.83
2022-11-23T15:52:11.219Z,3.60
2022-11-23T15:54:39.102Z,4.83
2022-11-23T15:57:14.532Z,2.63
2022-11-23T15:59:46.503Z,4.30
2022-11-23T16:02:24.865Z,2.20
2022-11-23T16:05:14.680Z,3.73
2022-11-23T16:07:54.878Z,5.53
2022-11-23T16:10:26.603Z,5.93
2022-11-23T16:12:58.670Z,3.37
2022-11-23T16:15:37.648Z,3.83
2022-11-23T16:18:13.625Z,5.83
2022-11-23T16:20:49.945Z,4.03
2022-11-23T16:23:25.673Z,4.80
2022-11-23T16:25:59.030Z,3.90
2022-11-23T16:28:53.257Z,5.40
2022-11-23T16:31:40.605Z,5.63
2022-11-23T16:34:15.728Z,6.70
2022-11-23T16:36:42.412Z,6.70
2022-11-23T16:39:09.197Z,8.60
2022-11-23T16:41:36.497Z,6.87
2022-11-23T16:44:03.582Z,5.07
2022-11-23T16:46:32.000Z,7.80
2022-11-23T16:48:59.365Z,5.60
2022-11-23T16:51:26.364Z,8.90
2022-11-23T16:54:13.023Z,7.63
2022-11-23T16:56:41.068Z,7.13
2022-11-23T16:59:15.800Z,8.40
2022-11-23T17:01:43.806Z,6.30
2022-11-23T17:04:11.325Z,6.50
2022-11-23T17:06:38.331Z,7.70
2022-11-23T17:09:08.037Z,7.90
2022-11-23T17:11:40.020Z,6.70
2022-11-23T17:14:07.642Z,10.07
2022-11-23T17:16:34.578Z,7.60
2022-11-23T17:19:01.568Z,7.33
2022-11-23T17:21:28.338Z,6.73
2022-11-23T17:23:55.152Z,6.27
2022-11-23T17:26:42.006Z,7.03
2022-11-23T17:29:16.196Z,4.00
2022-11-23T17:31:45.552Z,6.90
2022-11-23T17:34:14.192Z,5.90
2022-11-23T17:36:46.434Z,5.13
2022-11-23T17:39:21.228Z,6.80
2022-11-23T17:41:48.736Z,5.43
2022-11-23T17:44:16.348Z,3.40
2022-11-23T17:46:44.143Z,6.57
2022-11-23T17:49:18.130Z,7.00
2022-11-23T17:51:45.511Z,3.87
2022-11-23T17:54:12.787Z,3.90
2022-11-23T17:56:40.206Z,5.67
2022-11-23T17:59:07.280Z,3.90
2022-11-23T18:01:34.124Z,2.80
2022-11-23T18:04:01.419Z,3.10
2022-11-23T18:06:29.543Z,3.93
2022-11-23T18:08:57.241Z,3.70
2022-11-23T18:11:24.350Z,4.07
2022-11-23T18:13:51.644Z,3.80
2022-11-23T18:16:20.744Z,5.57
2022-11-23T18:18:47.956Z,4.47
2022-11-23T18:21:15.674Z,3.77
2022-11-23T18:23:42.732Z,5.13
2022-11-23T18:26:25.909Z,5.53
2022-11-23T18:28:53.479Z,3.70
2022-11-23T18:31:20.871Z,4.73
2022-11-23T18:33:48.081Z,4.40
2022-11-23T18:36:15.504Z,5.23
2022-11-23T18:38:44.881Z,4.30
2022-11-23T18:41:16.973Z,3.63
2022-11-23T18:43:44.822Z,6.90
2022-11-23T18:46:13.020Z,4.73
2022-11-23T18:48:40.230Z,3.60
2022-11-23T18:51:11.811Z,5.67
2022-11-23T18:53:41.254Z,6.40
2022-11-23T18:56:10.314Z,4.93
2022-11-23T18:58:40.166Z,5.47
2022-11-23T19:01:12.275Z,4.97
2022-11-23T19:03:41.559Z,4.90
2022-11-23T19:06:12.104Z,5.10
2022-11-23T19:08:40.988Z,5.67
2022-11-23T19:11:11.028Z,5.93
2022-11-23T19:13:38.715Z,4.63
2022-11-23T19:16:11.121Z,4.70
2022-11-23T19:18:38.744Z,5.50
2022-11-23T19:21:19.586Z,5.67
2022-11-23T19:23:51.608Z,5.70
2022-11-23T19:26:19.083Z,5.57
2022-11-23T19:28:46.918Z,5.07
2022-11-23T19:31:29.358Z,4.37
2022-11-23T19:34:06.008Z,3.77
2022-11-23T19:36:36.720Z,3.93
2022-11-23T19:39:08.512Z,4.23
2022-11-23T19:41:35.800Z,4.40
2022-11-23T19:44:03.015Z,7.70
2022-11-23T19:46:31.492Z,4.83
2022-11-23T19:48:59.410Z,4.70
2022-11-23T19:51:27.558Z,4.20
2022-11-23T19:53:57.173Z,5.10
2022-11-23T19:56:26.464Z,6.40
2022-11-23T19:58:56.842Z,5.97
2022-11-23T20:01:26.300Z,4.30
2022-11-23T20:03:57.321Z,5.10
2022-11-23T20:06:27.245Z,4.80
2022-11-23T20:08:55.536Z,4.23
2022-11-23T20:11:23.224Z,4.43
2022-11-23T20:13:50.839Z,4.23
2022-11-23T20:16:20.651Z,6.23
2022-11-23T20:18:53.538Z,4.53
2022-11-23T20:21:21.498Z,4.53
2022-11-23T20:23:50.648Z,3.93
2022-11-23T20:26:21.639Z,6.00
2022-11-23T20:28:53.981Z,6.00
2022-11-23T20:31:24.453Z,4.57
2022-11-23T20:33:52.594Z,3.83
2022-11-23T20:36:23.218Z,4.30
2022-11-23T20:38:51.932Z,5.10
2022-11-23T20:41:27.555Z,4.50
2022-11-23T20:44:00.471Z,4.63
2022-11-23T20:49:18.039Z,4.00
2022-11-23T20:51:45.968Z,3.10
2022-11-23T20:54:13.261Z,4.70
2022-11-23T20:56:40.557Z,6.43
2022-11-23T20:59:08.266Z,4.47
2022-11-23T21:01:35.341Z,5.80
2022-11-23T21:04:02.643Z,6.63
2022-11-23T21:06:34.453Z,10.33
2022-11-23T21:09:04.464Z,8.57
2022-11-23T21:11:49.989Z,11.33
2022-11-23T21:14:18.554Z,7.70
2022-11-23T21:16:56.194Z,10.40
2022-11-23T21:19:26.562Z,6.37
2022-11-23T21:21:54.291Z,7.53
2022-11-23T21:24:21.729Z,8.23
2022-11-23T21:26:49.247Z,8.40
2022-11-23T21:29:17.347Z,8.27
2022-11-23T21:31:46.928Z,6.23
2022-11-23T21:34:21.181Z,9.40
2022-11-23T21:36:49.471Z,9.10
2022-11-23T21:39:17.472Z,4.87
2022-11-23T21:41:46.132Z,7.87
2022-11-23T21:44:13.108Z,7.30
2022-11-23T21:46:44.330Z,10.57
2022-11-23T21:49:12.070Z,6.00
2022-11-23T21:51:39.610Z,4.93
2022-11-23T21:54:10.355Z,6.37
2022-11-23T21:56:37.600Z,4.33
2022-11-23T21:59:04.384Z,7.20
2022-11-23T22:01:33.105Z,4.70
2022-11-23T22:04:06.006Z,8.60
2022-11-23T22:06:33.023Z,6.20
2022-11-23T22:09:00.124Z,7.70
2022-11-23T22:11:32.267Z,5.20
2022-11-23T22:14:00.264Z,8.33
2022-11-23T22:16:29.797Z,8.40
2022-11-23T22:18:57.461Z,6.83
2022-11-23T22:21:26.531Z,13.27
2022-11-23T22:23:53.918Z,8.97
2022-11-23T22:26:21.446Z,7.47
2022-11-23T22:28:50.006Z,7.40
2022-11-23T22:31:22.166Z,10.37
2022-11-23T22:33:49.567Z,10.27
2022-11-23T22:36:21.804Z,6.70
2022-11-23T22:38:56.604Z,9.90
2022-11-23T22:41:28.051Z,6.73
2022-11-23T22:43:55.440Z,6.20
2022-11-23T22:46:24.250Z,9.83
2022-11-23T22:48:51.969Z,8.93
2022-11-23T22:51:23.159Z,10.03
2022-11-23T22:53:58.727Z,8.40
2022-11-23T22:56:26.615Z,8.33
2022-11-23T22:58:53.632Z,6.33
2022-11-23T23:01:23.257Z,6.33
2022-11-23T23:03:55.592Z,8.33
2022-11-23T23:06:25.251Z,8.20
2022-11-23T23:09:00.042Z,6.20
2022-11-23T23:11:28.928Z,7.23
2022-11-23T23:13:56.609Z,9.03
2022-11-23T23:16:24.109Z,8.07
2022-11-23T23:18:51.637Z,9.10
2022-11-23T23:21:22.318Z,9.13
2022-11-23T23:23:51.237Z,9.33
2022-11-23T23:26:20.133Z,9.27
2022-11-23T23:28:47.141Z,11.40
2022-11-23T23:31:16.639Z,8.93
2022-11-23T23:33:45.282Z,10.53
2022-11-23T23:36:12.266Z,9.03
2022-11-23T23:38:39.604Z,10.43
2022-11-23T23:41:08.280Z,10.47
2022-11-23T23:43:36.048Z,8.23
2022-11-23T23:46:05.956Z,12.10
2022-11-23T23:48:35.043Z,7.57
2022-11-23T23:51:06.340Z,5.97
2022-11-23T23:53:34.310Z,7.97
2022-11-23T23:56:04.254Z,10.10
2022-11-23T23:58:31.588Z,6.80
